createdAt,value
2023-03-06T00:00:21.069Z,30.67
2023-03-06T00:01:21.093Z,29.88
2023-03-06T00:02:21.051Z,30.95
2023-03-06T00:03:21.089Z,30.09
2023-03-06T00:04:21.001Z,30.72
2023-03-06T00:05:21.002Z,32.16
2023-03-06T00:06:20.976Z,31.23
2023-03-06T00:07:20.944Z,31.90
2023-03-06T00:08:20.921Z,28.95
2023-03-06T00:09:20.904Z,30.49
2023-03-06T00:10:20.913Z,30.09
2023-03-06T00:11:20.883Z,30.42
2023-03-06T00:12:20.845Z,31.72
2023-03-06T00:13:20.852Z,30.56
2023-03-06T00:14:20.856Z,30.05
2023-03-06T00:15:20.777Z,31.56
2023-03-06T00:16:20.796Z,30.00
2023-03-06T00:17:20.741Z,32.53
2023-03-06T00:18:20.726Z,29.95
2023-03-06T00:19:20.709Z,30.73
2023-03-06T00:20:20.690Z,30.29
2023-03-06T00:21:20.685Z,30.53
2023-03-06T00:22:20.660Z,30.70
2023-03-06T00:23:20.633Z,30.44
2023-03-06T00:24:20.617Z,30.85
2023-03-06T00:25:20.597Z,30.99
2023-03-06T00:26:20.596Z,31.21
2023-03-06T00:27:20.551Z,31.20
2023-03-06T00:28:20.562Z,30.60
2023-03-06T00:29:20.522Z,31.38
2023-03-06T00:30:20.496Z,29.52
2023-03-06T00:31:20.519Z,30.92
2023-03-06T00:32:20.489Z,31.07
2023-03-06T00:33:20.498Z,30.02
2023-03-06T00:34:20.434Z,29.44
2023-03-06T00:35:20.465Z,30.80
2023-03-06T00:36:20.396Z,27.85
2023-03-06T00:37:20.366Z,30.28
2023-03-06T00:38:20.360Z,28.39
2023-03-06T00:39:20.364Z,29.04
2023-03-06T00:40:20.338Z,29.52
2023-03-06T00:41:20.299Z,29.87
2023-03-06T00:42:20.265Z,30.22
2023-03-06T00:45:20.227Z,28.98
2023-03-06T01:17:19.603Z,29.06
2023-03-06T01:18:19.589Z,29.14
2023-03-06T01:19:19.567Z,29.50
2023-03-06T01:20:19.541Z,29.64
2023-03-06T01:21:19.534Z,29.71
2023-03-06T01:22:19.507Z,29.13
2023-03-06T01:23:19.522Z,29.39
2023-03-06T01:24:19.477Z,29.54
2023-03-06T01:25:19.463Z,29.77
2023-03-06T01:26:19.444Z,29.57
2023-03-06T01:27:19.412Z,29.37
2023-03-06T01:28:19.379Z,28.46
2023-03-06T01:29:19.381Z,27.88
2023-03-06T01:30:19.345Z,28.45
2023-03-06T01:31:19.352Z,28.08
2023-03-06T01:32:19.351Z,31.02
2023-03-06T01:33:19.310Z,29.09
2023-03-06T01:34:19.250Z,29.07
2023-03-06T01:35:19.263Z,29.06
2023-03-06T01:36:19.259Z,28.67
2023-03-06T01:37:19.189Z,29.23
2023-03-06T01:38:19.157Z,28.73
2023-03-06T01:39:19.161Z,28.20
2023-03-06T01:40:19.125Z,28.74
2023-03-06T01:41:19.104Z,29.63
2023-03-06T01:42:19.081Z,30.69
2023-03-06T01:43:19.068Z,30.32
2023-03-06T01:44:19.036Z,29.70
2023-03-06T01:45:19.035Z,27.81
2023-03-06T01:46:19.009Z,30.57
2023-03-06T01:47:18.985Z,27.99
2023-03-06T01:48:18.950Z,30.89
2023-03-06T01:49:18.930Z,28.53
2023-03-06T01:50:18.906Z,28.52
2023-03-06T01:51:18.891Z,29.39
2023-03-06T01:52:18.845Z,29.12
2023-03-06T01:53:18.823Z,28.22
2023-03-06T01:54:18.795Z,28.51
2023-03-06T01:55:18.779Z,29.43
2023-03-06T01:56:18.804Z,29.53
2023-03-06T01:57:18.757Z,28.80
2023-03-06T01:58:18.724Z,26.97
2023-03-06T01:59:18.698Z,29.50
2023-03-06T02:00:18.678Z,27.66
2023-03-06T02:01:18.676Z,28.67
2023-03-06T02:02:18.659Z,28.47
2023-03-06T02:03:18.655Z,29.94
2023-03-06T02:04:18.571Z,31.42
2023-03-06T02:05:18.605Z,29.48
2023-03-06T02:06:18.524Z,29.35
2023-03-06T02:07:18.542Z,29.01
2023-03-06T02:08:18.509Z,26.84
2023-03-06T02:09:18.474Z,29.05
2023-03-06T02:10:18.444Z,27.44
2023-03-06T02:11:18.458Z,27.74
2023-03-06T02:12:18.395Z,28.11
2023-03-06T02:13:18.384Z,30.13
2023-03-06T02:14:18.358Z,29.59
2023-03-06T02:15:18.324Z,30.80
2023-03-06T02:16:18.402Z,27.16
2023-03-06T02:17:18.318Z,28.89
2023-03-06T02:18:18.276Z,26.17
2023-03-06T02:19:18.278Z,28.87
2023-03-06T02:20:18.235Z,31.52
2023-03-06T02:21:18.213Z,26.85
2023-03-06T02:22:18.182Z,28.12
2023-03-06T02:23:18.164Z,28.55
2023-03-06T02:24:18.131Z,27.47
2023-03-06T02:25:18.122Z,29.78
2023-03-06T02:26:18.103Z,29.46
2023-03-06T02:27:18.085Z,27.25
2023-03-06T02:28:18.059Z,28.80
2023-03-06T02:29:18.028Z,29.60
2023-03-06T02:30:18.004Z,27.63
2023-03-06T02:31:17.996Z,31.57
2023-03-06T02:32:17.993Z,27.44
2023-03-06T02:33:17.924Z,29.28
2023-03-06T02:34:17.896Z,28.05
2023-03-06T02:35:17.867Z,29.23
2023-03-06T02:36:17.829Z,28.90
2023-03-06T02:37:17.828Z,28.61
2023-03-06T02:38:17.780Z,27.02
2023-03-06T02:39:17.792Z,27.63
2023-03-06T02:40:17.798Z,29.21
2023-03-06T02:41:17.736Z,31.08
2023-03-06T02:42:17.714Z,29.11
2023-03-06T02:43:17.676Z,28.51
2023-03-06T02:44:17.695Z,29.49
2023-03-06T02:45:17.646Z,29.79
2023-03-06T02:46:17.658Z,28.73
2023-03-06T02:47:17.633Z,28.50
2023-03-06T02:48:17.604Z,28.90
2023-03-06T02:49:17.602Z,29.33
2023-03-06T02:50:17.563Z,29.18
2023-03-06T02:51:17.557Z,29.87
2023-03-06T02:52:17.523Z,29.28
2023-03-06T02:53:17.478Z,30.12
2023-03-06T02:54:17.504Z,30.06
2023-03-06T02:55:17.455Z,27.53
2023-03-06T02:56:17.439Z,31.20
2023-03-06T02:57:17.417Z,28.63
2023-03-06T02:58:17.386Z,30.65
2023-03-06T02:59:17.379Z,28.03
2023-03-06T03:00:17.363Z,29.52
2023-03-06T03:01:17.347Z,29.07
2023-03-06T03:02:17.323Z,29.36
2023-03-06T03:03:17.284Z,31.77
2023-03-06T03:04:17.311Z,29.57
2023-03-06T03:05:17.254Z,29.16
2023-03-06T03:06:17.248Z,26.66
2023-03-06T03:07:17.234Z,30.40
2023-03-06T03:08:17.201Z,27.90
2023-03-06T03:09:17.219Z,30.27
2023-03-06T03:10:17.124Z,27.47
2023-03-06T03:11:17.096Z,29.33
2023-03-06T03:12:17.159Z,28.98
2023-03-06T03:13:17.067Z,28.64
2023-03-06T03:14:17.036Z,30.73
2023-03-06T03:15:17.029Z,28.20
2023-03-06T03:16:17.027Z,30.38
2023-03-06T03:17:16.965Z,30.10
2023-03-06T03:18:16.927Z,30.90
2023-03-06T03:19:16.903Z,29.88
2023-03-06T03:20:16.873Z,31.22
2023-03-06T03:21:16.847Z,30.60
2023-03-06T03:22:16.841Z,29.95
2023-03-06T03:23:16.812Z,29.25
2023-03-06T03:24:16.857Z,28.09
2023-03-06T03:25:16.792Z,28.15
2023-03-06T03:26:16.760Z,29.79
2023-03-06T03:27:16.741Z,28.30
2023-03-06T03:28:16.754Z,32.58
2023-03-06T03:29:16.685Z,27.48
2023-03-06T03:30:16.679Z,28.87
2023-03-06T03:31:16.680Z,30.08
2023-03-06T03:32:16.641Z,30.84
2023-03-06T03:33:16.623Z,27.50
2023-03-06T03:34:16.559Z,29.02
2023-03-06T03:35:16.558Z,25.72
2023-03-06T03:36:16.531Z,30.16
2023-03-06T03:37:16.497Z,30.14
2023-03-06T03:38:16.490Z,27.65
2023-03-06T03:39:16.458Z,29.38
2023-03-06T03:40:16.466Z,29.57
2023-03-06T03:41:16.430Z,30.76
2023-03-06T03:42:16.396Z,29.90
2023-03-06T03:43:16.378Z,29.24
2023-03-06T03:44:16.335Z,27.91
2023-03-06T03:45:16.338Z,29.38
2023-03-06T03:46:16.365Z,29.22
2023-03-06T03:47:16.300Z,28.70
2023-03-06T03:48:16.274Z,29.26
2023-03-06T03:49:16.247Z,27.23
2023-03-06T03:50:16.215Z,29.86
2023-03-06T03:51:16.178Z,27.34
2023-03-06T03:52:16.171Z,27.86
2023-03-06T03:53:16.142Z,28.06
2023-03-06T03:54:16.109Z,28.73
2023-03-06T03:55:16.090Z,26.75
2023-03-06T04:09:15.787Z,27.08
2023-03-06T04:10:15.760Z,29.35
2023-03-06T04:11:15.762Z,27.88
2023-03-06T04:12:15.724Z,28.28
2023-03-06T04:13:15.694Z,28.50
2023-03-06T04:14:15.728Z,31.62
2023-03-06T04:15:15.661Z,28.06
2023-03-06T04:16:15.805Z,26.80
2023-03-06T04:17:15.623Z,28.14
2023-03-06T04:18:15.596Z,28.37
2023-03-06T04:19:15.605Z,28.60
2023-03-06T04:20:15.567Z,27.53
2023-03-06T04:21:15.548Z,27.27
2023-03-06T04:22:15.533Z,31.36
2023-03-06T04:23:15.514Z,27.70
2023-03-06T04:24:15.493Z,28.00
2023-03-06T04:25:15.487Z,30.58
2023-03-06T04:26:15.440Z,28.03
2023-03-06T04:27:15.432Z,29.31
2023-03-06T04:28:15.403Z,28.80
2023-03-06T04:29:15.373Z,29.06
2023-03-06T04:30:15.346Z,30.00
2023-03-06T06:38:15.765Z,25.52
2023-03-06T07:14:12.400Z,65.92
2023-03-06T07:15:12.469Z,64.87
2023-03-06T07:16:12.357Z,65.32
2023-03-06T07:17:12.348Z,65.53
2023-03-06T07:18:12.452Z,65.53
2023-03-06T07:19:12.285Z,65.23
2023-03-06T07:20:12.276Z,61.61
2023-03-06T07:21:19.350Z,56.40
2023-03-06T07:22:12.237Z,65.48
2023-03-06T07:24:12.226Z,59.77
2023-03-06T07:25:12.225Z,59.82
2023-03-06T07:26:12.208Z,57.15
2023-03-06T07:27:12.200Z,54.00
2023-03-06T07:28:12.261Z,51.37
2023-03-06T07:29:12.462Z,40.65
2023-03-06T07:30:12.164Z,39.85
2023-03-06T07:31:12.193Z,38.88
2023-03-06T07:32:12.212Z,35.88
2023-03-06T07:33:12.114Z,34.11
2023-03-06T07:34:12.106Z,38.68
2023-03-06T07:35:19.682Z,38.80
2023-03-06T07:36:14.025Z,38.91
2023-03-06T07:37:12.079Z,37.58
2023-03-06T07:38:12.111Z,36.60
2023-03-06T07:39:12.046Z,30.59
2023-03-06T07:40:12.072Z,28.96
2023-03-06T07:41:12.010Z,25.84
2023-03-06T07:42:12.003Z,34.97
2023-03-06T07:43:19.093Z,37.26
2023-03-06T07:44:12.971Z,29.85
2023-03-06T07:45:11.947Z,26.74
2023-03-06T07:46:11.992Z,20.38
2023-03-06T07:47:11.919Z,21.58
2023-03-06T07:48:11.957Z,28.44
2023-03-06T07:49:11.864Z,25.65
2023-03-06T07:50:11.853Z,26.00
2023-03-06T07:51:11.883Z,26.57
2023-03-06T07:52:11.814Z,25.71
2023-03-06T07:53:11.842Z,22.83
2023-03-06T07:54:11.835Z,22.10
2023-03-06T07:55:11.767Z,27.45
2023-03-06T07:56:11.745Z,28.36
2023-03-06T07:57:11.711Z,29.86
2023-03-06T07:58:11.699Z,28.88
2023-03-06T07:59:11.684Z,27.55
2023-03-06T08:00:11.701Z,29.40
2023-03-06T08:01:11.653Z,26.42
2023-03-06T08:02:11.699Z,29.43
2023-03-06T08:03:11.618Z,32.59
2023-03-06T08:04:11.658Z,39.25
2023-03-06T08:05:11.542Z,50.62
2023-03-06T08:06:11.517Z,54.26
2023-03-06T08:07:11.543Z,54.63
2023-03-06T08:08:11.498Z,55.30
2023-03-06T08:09:11.478Z,58.06
2023-03-06T08:10:11.494Z,63.46
2023-03-06T08:11:11.436Z,71.83
2023-03-06T08:12:11.391Z,67.19
2023-03-06T08:13:11.392Z,63.09
2023-03-06T08:14:11.350Z,57.65
2023-03-06T08:15:11.323Z,59.38
2023-03-06T08:16:11.341Z,63.90
2023-03-06T08:17:11.317Z,64.01
2023-03-06T08:18:11.285Z,64.88
2023-03-06T08:19:11.233Z,73.49
2023-03-06T08:20:11.229Z,65.05
2023-03-06T08:21:11.191Z,68.94
2023-03-06T08:22:11.206Z,73.93
2023-03-06T08:23:11.248Z,77.61
2023-03-06T08:24:11.125Z,82.27
2023-03-06T08:25:11.097Z,84.54
2023-03-06T08:26:11.071Z,79.74
2023-03-06T08:27:11.074Z,80.92
2023-03-06T08:28:11.036Z,78.90
2023-03-06T08:29:10.996Z,73.79
2023-03-06T08:30:10.989Z,74.70
2023-03-06T08:31:10.987Z,70.12
2023-03-06T08:32:10.940Z,71.38
2023-03-06T08:33:10.930Z,72.60
2023-03-06T08:34:10.904Z,73.75
2023-03-06T08:35:10.898Z,73.71
2023-03-06T08:36:10.874Z,64.70
2023-03-06T08:37:10.887Z,70.99
2023-03-06T08:38:10.829Z,53.63
2023-03-06T08:39:10.835Z,61.67
2023-03-06T08:40:10.804Z,48.91
2023-03-06T08:41:10.768Z,45.55
2023-03-06T08:42:10.761Z,15.54
2023-03-06T08:43:13.001Z,0.00
2023-03-06T08:44:10.712Z,0.00
2023-03-06T08:45:10.708Z,0.00
2023-03-06T08:46:10.688Z,0.00
2023-03-06T08:47:10.703Z,0.00
2023-03-06T08:48:10.673Z,0.00
2023-03-06T08:49:10.680Z,0.00
2023-03-06T08:50:10.667Z,0.00
2023-03-06T08:51:10.651Z,0.00
2023-03-06T08:52:10.640Z,0.00
2023-03-06T08:53:10.684Z,10.01
2023-03-06T08:54:10.625Z,35.88
2023-03-06T08:55:10.615Z,52.86
2023-03-06T08:56:10.586Z,65.85
2023-03-06T08:57:10.679Z,72.71
2023-03-06T08:58:10.549Z,83.97
2023-03-06T08:59:10.554Z,84.21
2023-03-06T09:00:10.564Z,85.39
2023-03-06T09:01:10.645Z,88.21
2023-03-06T09:02:10.503Z,90.98
2023-03-06T09:03:10.474Z,98.02
2023-03-06T09:04:10.454Z,97.73
2023-03-06T09:05:10.419Z,100.39
2023-03-06T09:06:10.404Z,100.75
2023-03-06T09:07:10.388Z,102.72
2023-03-06T09:08:10.371Z,105.68
2023-03-06T09:09:10.522Z,109.53
2023-03-06T09:10:10.476Z,119.83
2023-03-06T09:11:10.376Z,120.24
2023-03-06T09:12:10.292Z,117.37
2023-03-06T09:13:10.304Z,107.93
2023-03-06T09:14:10.282Z,115.23
2023-03-06T09:15:10.258Z,103.86
2023-03-06T09:16:10.373Z,111.40
2023-03-06T09:17:10.232Z,120.15
2023-03-06T09:18:10.201Z,134.92
2023-03-06T09:19:10.218Z,134.73
2023-03-06T09:20:10.599Z,117.97
2023-03-06T09:21:10.176Z,94.42
2023-03-06T09:22:10.159Z,77.56
2023-03-06T09:23:10.148Z,58.23
2023-03-06T09:24:10.153Z,39.38
2023-03-06T09:25:10.114Z,41.97
2023-03-06T09:26:10.087Z,37.36
2023-03-06T09:27:10.083Z,27.83
2023-03-06T09:28:11.962Z,19.47
2023-03-06T09:29:10.052Z,7.45
2023-03-06T09:30:10.024Z,0.00
2023-03-06T09:31:10.099Z,0.00
2023-03-06T09:32:12.084Z,1.08
2023-03-06T09:33:10.009Z,2.89
2023-03-06T09:34:09.999Z,19.44
2023-03-06T09:35:10.018Z,16.52
2023-03-06T09:36:09.981Z,30.66
2023-03-06T09:37:09.964Z,34.22
2023-03-06T09:38:09.977Z,46.72
2023-03-06T09:39:09.996Z,36.66
2023-03-06T09:40:09.934Z,26.03
2023-03-06T09:41:09.937Z,30.84
2023-03-06T09:42:09.906Z,30.87
2023-03-06T09:43:09.902Z,31.97
2023-03-06T09:44:09.873Z,31.45
2023-03-06T09:45:09.862Z,24.31
2023-03-06T09:46:09.875Z,24.60
2023-03-06T09:47:09.845Z,25.71
2023-03-06T09:48:09.886Z,25.11
2023-03-06T09:49:09.809Z,30.48
2023-03-06T09:50:09.853Z,41.07
2023-03-06T09:51:09.779Z,47.54
2023-03-06T09:52:09.766Z,39.97
2023-03-06T09:53:09.785Z,50.06
2023-03-06T09:54:09.750Z,64.24
2023-03-06T09:55:09.753Z,72.69
2023-03-06T09:56:09.718Z,80.98
2023-03-06T09:57:09.722Z,86.77
2023-03-06T09:58:09.700Z,91.13
2023-03-06T09:59:09.697Z,95.96
2023-03-06T10:00:09.676Z,106.36
2023-03-06T10:01:09.646Z,115.73
2023-03-06T10:02:09.855Z,126.74
2023-03-06T10:03:09.785Z,138.47
2023-03-06T10:04:09.640Z,148.71
2023-03-06T10:05:09.714Z,148.18
2023-03-06T10:06:09.568Z,144.18
2023-03-06T10:07:09.559Z,153.87
2023-03-06T10:08:09.537Z,160.94
2023-03-06T10:09:09.530Z,162.35
2023-03-06T10:10:09.526Z,173.90
2023-03-06T10:11:09.507Z,180.92
2023-03-06T10:12:09.490Z,185.91
2023-03-06T10:13:09.457Z,186.21
2023-03-06T10:14:09.444Z,187.59
2023-03-06T10:15:09.440Z,191.46
2023-03-06T10:16:09.462Z,196.77
2023-03-06T10:17:09.397Z,206.63
2023-03-06T10:18:09.375Z,212.40
2023-03-06T10:19:09.360Z,213.71
2023-03-06T10:20:09.332Z,215.71
2023-03-06T10:21:18.646Z,213.53
2023-03-06T10:22:10.313Z,213.74
2023-03-06T10:23:11.032Z,211.83
2023-03-06T10:24:09.284Z,209.49
2023-03-06T10:25:09.259Z,211.50
2023-03-06T10:26:09.286Z,218.29
2023-03-06T10:27:09.245Z,221.37
2023-03-06T10:28:09.236Z,221.67
2023-03-06T10:29:09.272Z,222.27
2023-03-06T10:30:09.239Z,224.56
2023-03-06T10:31:09.211Z,226.80
2023-03-06T10:32:09.147Z,231.51
2023-03-06T10:33:09.119Z,225.18
2023-03-06T10:34:09.077Z,224.49
2023-03-06T10:35:09.058Z,226.14
2023-03-06T10:36:09.038Z,216.38
2023-03-06T10:37:09.006Z,225.12
2023-03-06T10:38:09.006Z,222.63
2023-03-06T10:39:09.016Z,225.33
2023-03-06T10:40:08.967Z,221.68
2023-03-06T10:41:08.909Z,216.68
2023-03-06T10:42:08.888Z,210.39
2023-03-06T10:43:11.835Z,184.22
2023-03-06T10:44:08.869Z,180.02
2023-03-06T10:45:08.841Z,192.55
2023-03-06T10:47:08.821Z,175.82
2023-03-06T10:48:08.793Z,170.66
2023-03-06T10:49:08.830Z,178.71
2023-03-06T10:50:08.731Z,188.49
2023-03-06T10:52:08.718Z,186.00
2023-03-06T11:12:08.358Z,191.89
2023-03-06T11:24:11.845Z,176.04
2023-03-06T11:25:08.049Z,176.05
2023-03-06T11:26:08.005Z,154.07
2023-03-06T11:27:07.976Z,164.23
2023-03-06T11:28:07.966Z,172.19
2023-03-06T11:29:07.975Z,180.82
2023-03-06T11:30:07.895Z,168.23
2023-03-06T11:31:07.887Z,163.86
2023-03-06T11:32:07.911Z,154.76
2023-03-06T11:33:07.831Z,169.49
2023-03-06T11:34:07.801Z,187.70
2023-03-06T11:35:07.777Z,189.60
2023-03-06T11:36:07.759Z,162.12
2023-03-06T11:37:07.734Z,176.25
2023-03-06T11:38:07.704Z,163.08
2023-03-06T11:39:07.674Z,145.78
2023-03-06T11:40:07.649Z,142.01
2023-03-06T11:41:07.614Z,146.77
2023-03-06T11:42:07.756Z,154.33
2023-03-06T11:43:07.573Z,149.11
2023-03-06T11:44:07.561Z,165.24
2023-03-06T11:45:07.547Z,168.72
2023-03-06T11:46:07.480Z,176.31
2023-03-06T11:47:07.485Z,178.58
2023-03-06T11:48:07.450Z,187.16
2023-03-06T11:49:07.415Z,196.60
2023-03-06T11:50:07.392Z,195.31
2023-03-06T11:51:07.406Z,196.15
2023-03-06T11:52:07.356Z,191.18
2023-03-06T11:53:07.321Z,188.90
2023-03-06T11:54:07.288Z,194.47
2023-03-06T11:55:07.269Z,194.71
2023-03-06T11:56:07.254Z,194.90
2023-03-06T11:57:07.228Z,198.65
2023-03-06T11:58:07.190Z,198.41
2023-03-06T11:59:07.160Z,202.53
2023-03-06T12:00:07.133Z,198.83
2023-03-06T12:01:07.113Z,191.81
2023-03-06T12:02:07.095Z,192.12
2023-03-06T12:03:07.067Z,192.68
2023-03-06T12:04:07.034Z,195.88
2023-03-06T12:05:07.073Z,196.23
2023-03-06T12:06:06.970Z,201.14
2023-03-06T12:07:07.775Z,205.29
2023-03-06T12:08:06.976Z,207.33
2023-03-06T12:09:06.898Z,207.32
2023-03-06T12:10:06.894Z,210.60
2023-03-06T12:12:06.824Z,209.23
2023-03-06T12:13:06.784Z,211.98
2023-03-06T12:14:06.772Z,215.56
2023-03-06T12:15:06.769Z,212.70
2023-03-06T12:16:06.726Z,216.96
2023-03-06T12:17:06.704Z,208.53
2023-03-06T12:18:06.653Z,205.44
2023-03-06T12:19:06.672Z,201.64
2023-03-06T12:20:06.615Z,204.71
2023-03-06T12:21:06.589Z,205.34
2023-03-06T12:22:06.563Z,205.17
2023-03-06T12:23:14.951Z,204.97
2023-03-06T12:24:07.535Z,205.03
2023-03-06T12:25:06.498Z,200.92
2023-03-06T12:26:06.483Z,194.57
2023-03-06T12:27:06.436Z,191.27
2023-03-06T12:28:06.418Z,184.20
2023-03-06T12:29:06.383Z,177.96
2023-03-06T12:30:06.362Z,178.16
2023-03-06T12:31:06.337Z,180.11
2023-03-06T12:32:06.684Z,187.12
2023-03-06T12:33:06.266Z,207.19
2023-03-06T12:34:06.253Z,220.51
2023-03-06T12:35:06.447Z,215.97
2023-03-06T12:36:06.207Z,211.26
2023-03-06T12:37:06.172Z,195.49
2023-03-06T12:38:06.148Z,186.00
2023-03-06T12:39:06.108Z,178.70
2023-03-06T12:40:06.078Z,176.91
2023-03-06T12:41:06.044Z,170.17
2023-03-06T12:42:11.290Z,165.44
2023-03-06T12:43:07.001Z,159.46
2023-03-06T12:44:05.949Z,136.54
2023-03-06T12:45:05.941Z,146.76
2023-03-06T12:46:05.891Z,147.84
2023-03-06T12:47:05.851Z,140.87
2023-03-06T12:48:05.820Z,136.63
2023-03-06T12:49:05.798Z,142.68
2023-03-06T12:50:05.758Z,140.19
2023-03-06T12:51:05.756Z,132.56
2023-03-06T12:52:05.729Z,139.71
2023-03-06T12:53:05.696Z,136.41
2023-03-06T12:54:05.661Z,132.73
2023-03-06T12:55:05.632Z,135.40
2023-03-06T12:56:05.622Z,138.65
2023-03-06T12:57:05.584Z,134.17
2023-03-06T12:58:05.553Z,134.49
2023-03-06T12:59:05.520Z,131.05
2023-03-06T13:00:05.505Z,138.94
2023-03-06T13:01:05.580Z,135.51
2023-03-06T13:02:05.535Z,136.31
2023-03-06T13:03:05.432Z,144.32
2023-03-06T13:04:05.402Z,142.45
2023-03-06T13:05:05.371Z,134.15
2023-03-06T13:06:05.358Z,134.89
2023-03-06T13:07:05.336Z,136.40
2023-03-06T13:08:05.310Z,128.18
2023-03-06T13:09:05.272Z,125.44
2023-03-06T13:10:05.247Z,127.14
2023-03-06T13:11:05.230Z,130.32
2023-03-06T13:12:05.203Z,137.32
2023-03-06T13:13:05.215Z,137.63
2023-03-06T13:14:05.155Z,138.45
2023-03-06T13:15:05.129Z,137.74
2023-03-06T13:16:05.094Z,139.05
2023-03-06T13:17:05.190Z,141.49
2023-03-06T13:18:05.056Z,140.74
2023-03-06T13:19:05.025Z,147.87
2023-03-06T13:20:04.990Z,149.70
2023-03-06T13:21:04.968Z,146.01
2023-03-06T13:22:04.924Z,146.12
2023-03-06T13:23:04.894Z,148.69
2023-03-06T13:24:04.869Z,145.24
2023-03-06T13:25:08.475Z,144.75
2023-03-06T13:26:04.862Z,144.96
2023-03-06T13:27:04.779Z,145.55
2023-03-06T13:28:04.765Z,147.27
2023-03-06T13:29:04.729Z,151.16
2023-03-06T13:30:04.701Z,146.94
2023-03-06T13:31:06.013Z,145.68
2023-03-06T13:32:04.866Z,145.78
2023-03-06T13:33:04.785Z,140.19
2023-03-06T13:34:04.783Z,145.87
2023-03-06T13:35:04.757Z,142.71
2023-03-06T13:36:04.723Z,159.92
2023-03-06T13:37:04.699Z,159.76
2023-03-06T13:38:04.662Z,153.41
2023-03-06T13:39:04.644Z,153.68
2023-03-06T13:40:04.655Z,154.59
2023-03-06T13:41:04.578Z,134.69
2023-03-06T13:42:04.585Z,142.72
2023-03-06T13:43:04.560Z,145.87
2023-03-06T13:44:04.534Z,153.91
2023-03-06T13:45:04.485Z,151.46
2023-03-06T13:46:04.528Z,161.57
2023-03-06T13:47:04.641Z,155.38
2023-03-06T13:48:30.390Z,159.46
2023-03-06T13:49:05.440Z,154.77
2023-03-06T13:50:04.365Z,152.37
2023-03-06T13:51:04.336Z,124.42
2023-03-06T13:52:04.316Z,129.01
2023-03-06T13:53:04.298Z,114.27
2023-03-06T13:54:04.290Z,63.08
2023-03-06T13:55:04.221Z,30.60
2023-03-06T13:56:04.243Z,8.29
2023-03-06T13:57:04.192Z,24.27
2023-03-06T13:58:04.171Z,20.44
2023-03-06T13:59:04.148Z,20.08
2023-03-06T14:00:09.179Z,0.00
2023-03-06T14:01:05.165Z,0.00
2023-03-06T14:02:04.092Z,0.00
2023-03-06T14:03:04.118Z,0.00
2023-03-06T14:04:04.068Z,0.00
2023-03-06T14:05:04.033Z,0.00
2023-03-06T14:06:04.006Z,0.00
2023-03-06T14:07:05.641Z,0.00
2023-03-06T14:08:04.014Z,0.00
2023-03-06T14:09:04.017Z,0.00
2023-03-06T14:10:03.982Z,0.00
2023-03-06T14:11:03.959Z,0.00
2023-03-06T14:12:03.955Z,0.00
2023-03-06T14:13:03.956Z,0.00
2023-03-06T14:14:03.940Z,0.00
2023-03-06T14:15:03.955Z,4.75
2023-03-06T14:16:04.017Z,27.28
2023-03-06T14:17:05.151Z,28.57
2023-03-06T14:18:04.024Z,29.13
2023-03-06T14:19:03.999Z,26.90
2023-03-06T14:20:04.015Z,21.18
2023-03-06T14:21:03.995Z,39.96
2023-03-06T14:22:04.045Z,39.94
2023-03-06T14:23:04.110Z,58.32
2023-03-06T14:24:04.143Z,62.88
2023-03-06T14:25:04.192Z,11.94
2023-03-06T14:26:04.232Z,0.00
2023-03-06T14:27:04.285Z,0.00
2023-03-06T14:28:13.720Z,0.00
2023-03-06T14:29:05.305Z,0.00
2023-03-06T14:30:04.347Z,0.00
2023-03-06T14:31:04.344Z,0.00
2023-03-06T14:32:04.301Z,34.99
2023-03-06T14:33:04.290Z,117.38
2023-03-06T14:34:04.297Z,115.33
2023-03-06T14:35:04.292Z,216.27
2023-03-06T14:36:04.280Z,255.24
2023-03-06T14:37:04.271Z,267.69
2023-03-06T14:38:04.266Z,263.27
2023-03-06T14:39:04.331Z,264.15
2023-03-06T14:40:04.276Z,251.00
2023-03-06T14:41:04.253Z,214.25
2023-03-06T14:42:04.249Z,211.60
2023-03-06T14:43:04.219Z,172.59
2023-03-06T14:44:04.210Z,154.56
2023-03-06T14:45:04.397Z,111.90
2023-03-06T14:46:04.270Z,98.86
2023-03-06T14:47:04.158Z,86.52
2023-03-06T14:48:04.155Z,65.87
2023-03-06T14:49:04.281Z,11.50
2023-03-06T14:50:04.136Z,53.28
2023-03-06T14:51:04.129Z,82.95
2023-03-06T14:52:04.135Z,111.37
2023-03-06T14:53:04.099Z,164.29
2023-03-06T14:54:04.119Z,162.05
2023-03-06T14:55:04.102Z,169.40
2023-03-06T14:56:05.943Z,212.26
2023-03-06T14:57:04.077Z,226.21
2023-03-06T14:58:04.070Z,224.43
2023-03-06T14:59:04.074Z,232.53
2023-03-06T15:00:04.107Z,238.80
2023-03-06T15:01:04.077Z,223.93
2023-03-06T15:02:04.083Z,192.00
2023-03-06T15:03:04.109Z,186.35
2023-03-06T15:04:04.046Z,209.00
2023-03-06T15:05:04.046Z,192.87
2023-03-06T15:06:04.050Z,212.77
2023-03-06T15:07:04.084Z,256.83
2023-03-06T15:08:04.050Z,258.23
2023-03-06T15:09:06.543Z,258.75
2023-03-06T15:10:04.023Z,259.14
2023-03-06T15:11:04.013Z,263.06
2023-03-06T15:12:04.007Z,272.38
2023-03-06T15:13:03.987Z,290.60
2023-03-06T15:14:03.973Z,313.65
2023-03-06T15:15:03.964Z,301.95
2023-03-06T15:16:04.030Z,289.01
2023-03-06T15:17:03.942Z,276.09
2023-03-06T15:18:03.925Z,265.30
2023-03-06T15:19:03.939Z,249.70
2023-03-06T15:20:03.923Z,250.16
2023-03-06T15:21:03.904Z,250.52
2023-03-06T15:22:03.865Z,252.33
2023-03-06T15:23:03.862Z,256.38
2023-03-06T15:24:03.841Z,262.79
2023-03-06T15:25:03.838Z,272.55
2023-03-06T15:26:03.824Z,264.53
2023-03-06T15:27:03.800Z,255.66
2023-03-06T15:28:03.805Z,250.00
2023-03-06T15:29:09.266Z,249.29
2023-03-06T15:30:04.763Z,249.32
2023-03-06T15:31:03.754Z,249.49
2023-03-06T15:32:03.755Z,249.68
2023-03-06T15:33:03.718Z,249.77
2023-03-06T15:34:03.684Z,249.84
2023-03-06T15:35:03.683Z,248.13
2023-03-06T15:36:03.665Z,248.19
2023-03-06T15:37:03.624Z,247.44
2023-03-06T15:38:03.617Z,248.60
2023-03-06T15:39:03.588Z,249.18
2023-03-06T15:40:03.598Z,246.12
2023-03-06T15:41:03.563Z,246.77
2023-03-06T15:42:05.093Z,247.33
2023-03-06T15:43:03.509Z,247.69
2023-03-06T15:44:03.506Z,248.05
2023-03-06T15:45:03.466Z,246.60
2023-03-06T15:46:03.493Z,241.94
2023-03-06T15:47:08.731Z,241.93
2023-03-06T15:48:04.430Z,240.39
2023-03-06T15:49:03.434Z,242.02
2023-03-06T15:50:03.376Z,241.49
2023-03-06T15:51:03.409Z,239.31
2023-03-06T15:52:03.338Z,240.05
2023-03-06T15:53:03.307Z,242.26
2023-03-06T15:54:11.852Z,245.93
2023-03-06T15:55:04.266Z,245.99
2023-03-06T15:56:03.259Z,246.37
2023-03-06T15:57:03.244Z,246.58
2023-03-06T15:58:03.212Z,248.59
2023-03-06T15:59:03.192Z,251.47
2023-03-06T16:00:03.197Z,246.12
2023-03-06T16:01:03.196Z,246.87
2023-03-06T16:02:03.157Z,249.18
2023-03-06T16:03:03.131Z,252.29
2023-03-06T16:04:03.166Z,256.57
2023-03-06T16:05:03.139Z,250.00
2023-03-06T16:06:03.078Z,248.97
2023-03-06T16:07:03.061Z,249.04
2023-03-06T16:08:03.036Z,249.82
2023-03-06T16:09:03.029Z,249.22
2023-03-06T16:10:03.007Z,250.00
2023-03-06T16:11:03.001Z,248.98
2023-03-06T16:12:02.982Z,248.68
2023-03-06T16:13:03.005Z,248.50
2023-03-06T16:14:02.952Z,249.59
2023-03-06T16:15:02.930Z,248.35
2023-03-06T16:16:02.901Z,249.35
2023-03-06T16:17:02.888Z,250.00
2023-03-06T16:18:02.867Z,249.14
2023-03-06T16:19:02.835Z,249.16
2023-03-06T16:20:02.815Z,249.34
2023-03-06T16:21:02.805Z,249.49
2023-03-06T16:22:02.780Z,249.02
2023-03-06T16:23:02.782Z,249.34
2023-03-06T16:24:02.761Z,249.96
2023-03-06T16:25:02.719Z,248.94
2023-03-06T16:26:02.721Z,248.34
2023-03-06T16:27:02.701Z,250.00
2023-03-06T16:28:02.659Z,249.23
2023-03-06T16:29:02.659Z,250.00
2023-03-06T16:30:02.647Z,249.19
2023-03-06T16:31:02.734Z,250.00
2023-03-06T16:32:02.730Z,249.81
2023-03-06T16:33:02.554Z,249.86
2023-03-06T16:34:02.533Z,250.05
2023-03-06T16:35:02.519Z,249.78
2023-03-06T16:36:02.502Z,250.97
2023-03-06T16:37:02.500Z,249.88
2023-03-06T16:38:02.475Z,250.00
2023-03-06T16:39:02.439Z,249.62
2023-03-06T16:40:02.436Z,249.62
2023-03-06T16:41:02.405Z,249.50
2023-03-06T16:42:02.408Z,247.49
2023-03-06T16:43:02.359Z,249.09
2023-03-06T16:44:02.345Z,248.42